sensor_id;sensor_type;location;lat;lon;timestamp;pressure;altitude;pressure_sealevel;temperature;humidity
17649;BME280;8943;51.110;-4.158;2024-01-16T00:02:07;100960.66;;;6.41;45.16
17649;BME280;8943;51.110;-4.158;2024-01-16T00:05:03;100961.13;;;6.32;45.92
17649;BME280;8943;51.110;-4.158;2024-01-16T00:07:47;100954.28;;;6.28;45.51
17649;BME280;8943;51.110;-4.158;2024-01-16T00:10:18;100962.16;;;6.30;45.79
17649;BME280;8943;51.110;-4.158;2024-01-16T00:12:48;100966.41;;;6.32;45.96
17649;BME280;8943;51.110;-4.158;2024-01-16T00:15:20;100956.59;;;6.34;45.73
17649;BME280;8943;51.110;-4.158;2024-01-16T00:18:53;100959.47;;;6.47;45.77
17649;BME280;8943;51.110;-4.158;2024-01-16T00:21:54;100956.44;;;6.55;46.12
17649;BME280;8943;51.110;-4.158;2024-01-16T00:24:46;100944.56;;;6.62;45.76
17649;BME280;8943;51.110;-4.158;2024-01-16T00:27:22;100955.75;;;6.67;45.84
17649;BME280;8943;51.110;-4.158;2024-01-16T00:29:52;100942.88;;;6.61;45.84
17649;BME280;8943;51.110;-4.158;2024-01-16T00:32:26;100930.88;;;6.54;45.92
17649;BME280;8943;51.110;-4.158;2024-01-16T00:34:55;100926.72;;;6.50;46.08
17649;BME280;8943;51.110;-4.158;2024-01-16T00:37:40;100926.53;;;6.53;46.52
17649;BME280;8943;51.110;-4.158;2024-01-16T00:40:10;100926.38;;;6.56;46.28
17649;BME280;8943;51.110;-4.158;2024-01-16T00:42:41;100919.38;;;6.55;46.06
17649;BME280;8943;51.110;-4.158;2024-01-16T00:45:11;100926.22;;;6.59;46.26
17649;BME280;8943;51.110;-4.158;2024-01-16T00:47:40;100919.13;;;6.59;46.19
17649;BME280;8943;51.110;-4.158;2024-01-16T00:50:10;100911.09;;;6.61;46.01
17649;BME280;8943;51.110;-4.158;2024-01-16T00:52:43;100915.44;;;6.62;46.27
17649;BME280;8943;51.110;-4.158;2024-01-16T00:55:12;100912.78;;;6.62;46.11
17649;BME280;8943;51.110;-4.158;2024-01-16T00:57:41;100910.94;;;6.64;46.27
17649;BME280;8943;51.110;-4.158;2024-01-16T01:00:11;100907.41;;;6.63;46.40
17649;BME280;8943;51.110;-4.158;2024-01-16T01:02:43;100906.56;;;6.63;46.16
17649;BME280;8943;51.110;-4.158;2024-01-16T01:05:12;100899.47;;;6.63;46.42
17649;BME280;8943;51.110;-4.158;2024-01-16T01:07:46;100897.69;;;6.64;46.75
17649;BME280;8943;51.110;-4.158;2024-01-16T01:10:18;100898.72;;;6.61;46.57
17649;BME280;8943;51.110;-4.158;2024-01-16T01:12:47;100898.88;;;6.58;46.29
17649;BME280;8943;51.110;-4.158;2024-01-16T01:15:19;100894.59;;;6.56;46.46
17649;BME280;8943;51.110;-4.158;2024-01-16T01:18:02;100893.66;;;6.57;46.38
17649;BME280;8943;51.110;-4.158;2024-01-16T01:20:35;100901.59;;;6.57;46.49
17649;BME280;8943;51.110;-4.158;2024-01-16T01:23:33;100896.16;;;6.60;46.75
17649;BME280;8943;51.110;-4.158;2024-01-16T01:26:06;100896.22;;;6.58;46.19
17649;BME280;8943;51.110;-4.158;2024-01-16T01:28:37;100896.22;;;6.58;46.44
17649;BME280;8943;51.110;-4.158;2024-01-16T01:31:10;100885.88;;;6.54;46.58
17649;BME280;8943;51.110;-4.158;2024-01-16T01:33:40;100890.41;;;6.52;46.54
17649;BME280;8943;51.110;-4.158;2024-01-16T01:36:09;100888.63;;;6.52;46.72
17649;BME280;8943;51.110;-4.158;2024-01-16T01:38:40;100886.75;;;6.54;46.40
17649;BME280;8943;51.110;-4.158;2024-01-16T01:41:08;100888.63;;;6.52;46.79
17649;BME280;8943;51.110;-4.158;2024-01-16T01:43:38;100876.41;;;6.50;46.45
17649;BME280;8943;51.110;-4.158;2024-01-16T01:46:14;100873.81;;;6.48;46.70
17649;BME280;8943;51.110;-4.158;2024-01-16T01:48:46;100877.31;;;6.49;46.57
17649;BME280;8943;51.110;-4.158;2024-01-16T01:51:19;100877.25;;;6.50;46.80
17649;BME280;8943;51.110;-4.158;2024-01-16T01:53:50;100869.22;;;6.52;46.85
17649;BME280;8943;51.110;-4.158;2024-01-16T01:56:20;100867.44;;;6.52;46.80
17649;BME280;8943;51.110;-4.158;2024-01-16T01:58:53;100867.28;;;6.55;46.27
17649;BME280;8943;51.110;-4.158;2024-01-16T02:01:29;100854.81;;;6.57;46.81
17649;BME280;8943;51.110;-4.158;2024-01-16T02:04:02;100860.63;;;6.64;46.71
17649;BME280;8943;51.110;-4.158;2024-01-16T02:06:32;100856.84;;;6.68;46.83
17649;BME280;8943;51.110;-4.158;2024-01-16T02:09:05;100860.34;;;6.68;47.16
17649;BME280;8943;51.110;-4.158;2024-01-16T02:11:37;100854.16;;;6.69;46.88
17649;BME280;8943;51.110;-4.158;2024-01-16T02:14:06;100855.00;;;6.70;46.78
17649;BME280;8943;51.110;-4.158;2024-01-16T02:17:03;100854.16;;;6.69;46.71
17649;BME280;8943;51.110;-4.158;2024-01-16T02:19:59;100856.69;;;6.71;46.96
17649;BME280;8943;51.110;-4.158;2024-01-16T02:22:45;100857.38;;;6.75;47.31
17649;BME280;8943;51.110;-4.158;2024-01-16T02:25:50;100853.69;;;6.77;46.92
17649;BME280;8943;51.110;-4.158;2024-01-16T02:28:33;100857.13;;;6.79;47.26
17649;BME280;8943;51.110;-4.158;2024-01-16T02:31:02;100862.19;;;6.84;47.33
17649;BME280;8943;51.110;-4.158;2024-01-16T02:33:35;100857.75;;;6.84;47.07
17649;BME280;8943;51.110;-4.158;2024-01-16T02:36:10;100850.66;;;6.85;47.00
17649;BME280;8943;51.110;-4.158;2024-01-16T02:39:09;100848.59;;;6.90;47.11
17649;BME280;8943;51.110;-4.158;2024-01-16T02:41:48;100853.63;;;6.94;47.30
17649;BME280;8943;51.110;-4.158;2024-01-16T02:44:31;100848.13;;;6.97;47.15
17649;BME280;8943;51.110;-4.158;2024-01-16T02:47:02;100842.69;;;7.01;46.97
17649;BME280;8943;51.110;-4.158;2024-01-16T02:49:37;100840.88;;;7.01;46.99
17649;BME280;8943;51.110;-4.158;2024-01-16T02:52:12;100833.78;;;7.02;47.05
17649;BME280;8943;51.110;-4.158;2024-01-16T02:54:42;100840.63;;;7.06;47.09
17649;BME280;8943;51.110;-4.158;2024-01-16T02:57:17;100833.47;;;7.08;46.96
17649;BME280;8943;51.110;-4.158;2024-01-16T02:59:47;100835.91;;;7.11;47.12
17649;BME280;8943;51.110;-4.158;2024-01-16T03:02:20;100827.13;;;7.10;47.13
17649;BME280;8943;51.110;-4.158;2024-01-16T03:04:52;100820.00;;;7.11;47.04
17649;BME280;8943;51.110;-4.158;2024-01-16T03:07:22;100819.06;;;7.12;47.12
17649;BME280;8943;51.110;-4.158;2024-01-16T03:09:51;100811.91;;;7.14;46.81
17649;BME280;8943;51.110;-4.158;2024-01-16T03:12:23;100819.75;;;7.15;47.15
17649;BME280;8943;51.110;-4.158;2024-01-16T03:14:53;100810.94;;;7.15;46.91
17649;BME280;8943;51.110;-4.158;2024-01-16T03:17:23;100801.22;;;7.15;47.03
17649;BME280;8943;51.110;-4.158;2024-01-16T03:19:54;100809.16;;;7.15;47.02
17649;BME280;8943;51.110;-4.158;2024-01-16T03:22:31;100800.25;;;7.16;47.10
17649;BME280;8943;51.110;-4.158;2024-01-16T03:25:00;100800.19;;;7.18;47.13
17649;BME280;8943;51.110;-4.158;2024-01-16T03:27:32;100786.84;;;7.19;46.93
17649;BME280;8943;51.110;-4.158;2024-01-16T03:30:02;100782.28;;;7.21;47.16
17649;BME280;8943;51.110;-4.158;2024-01-16T03:32:58;100781.28;;;7.24;47.04
17649;BME280;8943;51.110;-4.158;2024-01-16T03:35:43;100777.69;;;7.25;47.05
17649;BME280;8943;51.110;-4.158;2024-01-16T03:38:12;100788.19;;;7.27;47.17
17649;BME280;8943;51.110;-4.158;2024-01-16T03:40:56;100787.06;;;7.31;47.32
17649;BME280;8943;51.110;-4.158;2024-01-16T03:43:36;100778.25;;;7.30;47.16
17649;BME280;8943;51.110;-4.158;2024-01-16T03:46:06;100777.13;;;7.34;47.11
17649;BME280;8943;51.110;-4.158;2024-01-16T03:48:36;100775.44;;;7.33;46.99
17649;BME280;8943;51.110;-4.158;2024-01-16T03:51:10;100778.94;;;7.34;46.92
17649;BME280;8943;51.110;-4.158;2024-01-16T03:54:08;100783.19;;;7.36;47.43
17649;BME280;8943;51.110;-4.158;2024-01-16T03:57:08;100782.06;;;7.40;47.17
17649;BME280;8943;51.110;-4.158;2024-01-16T04:03:11;100762.22;;;7.47;46.79
17649;BME280;8943;51.110;-4.158;2024-01-16T04:05:46;100762.59;;;7.56;46.86
17649;BME280;8943;51.110;-4.158;2024-01-16T04:08:21;100770.38;;;7.59;46.91
17649;BME280;8943;51.110;-4.158;2024-01-16T04:10:53;100764.97;;;7.60;46.89
17649;BME280;8943;51.110;-4.158;2024-01-16T04:13:24;100754.09;;;7.65;46.82
17649;BME280;8943;51.110;-4.158;2024-01-16T04:16:07;100762.59;;;7.70;46.95
17649;BME280;8943;51.110;-4.158;2024-01-16T04:18:41;100755.50;;;7.70;47.03
17649;BME280;8943;51.110;-4.158;2024-01-16T04:21:13;100744.81;;;7.72;46.70
17649;BME280;8943;51.110;-4.158;2024-01-16T04:23:46;100746.53;;;7.73;46.76
17649;BME280;8943;51.110;-4.158;2024-01-16T04:26:16;100748.13;;;7.75;46.73
17649;BME280;8943;51.110;-4.158;2024-01-16T04:28:49;100749.75;;;7.78;46.75
17649;BME280;8943;51.110;-4.158;2024-01-16T04:31:19;100745.38;;;7.77;46.70
17649;BME280;8943;51.110;-4.158;2024-01-16T04:40:22;100743.41;;;7.66;46.66
17649;BME280;8943;51.110;-4.158;2024-01-16T04:42:59;100748.72;;;7.66;46.65
17649;BME280;8943;51.110;-4.158;2024-01-16T04:45:56;100745.16;;;7.66;46.49
17649;BME280;8943;51.110;-4.158;2024-01-16T04:48:40;100731.91;;;7.66;46.50
17649;BME280;8943;51.110;-4.158;2024-01-16T04:51:50;100730.22;;;7.65;46.89
17649;BME280;8943;51.110;-4.158;2024-01-16T04:54:46;100729.09;;;7.69;46.36
17649;BME280;8943;51.110;-4.158;2024-01-16T05:01:02;100721.69;;;7.74;46.42
17649;BME280;8943;51.110;-4.158;2024-01-16T05:03:46;100712.72;;;7.77;46.50
17649;BME280;8943;51.110;-4.158;2024-01-16T05:06:50;100715.38;;;7.77;46.40
17649;BME280;8943;51.110;-4.158;2024-01-16T05:10:00;100703.13;;;7.74;46.59
17649;BME280;8943;51.110;-4.158;2024-01-16T05:12:32;100694.22;;;7.75;46.46
17649;BME280;8943;51.110;-4.158;2024-01-16T05:15:05;100688.63;;;7.80;46.31
17649;BME280;8943;51.110;-4.158;2024-01-16T05:18:05;100685.03;;;7.81;46.43
17649;BME280;8943;51.110;-4.158;2024-01-16T05:21:02;100684.97;;;7.82;46.41
17649;BME280;8943;51.110;-4.158;2024-01-16T05:23:39;100685.69;;;7.84;46.26
17649;BME280;8943;51.110;-4.158;2024-01-16T05:26:16;100687.22;;;7.88;46.28
17649;BME280;8943;51.110;-4.158;2024-01-16T05:28:47;100677.44;;;7.89;45.85
17649;BME280;8943;51.110;-4.158;2024-01-16T05:31:40;100679.94;;;7.92;45.98
17649;BME280;8943;51.110;-4.158;2024-01-16T05:34:58;100677.34;;;7.90;46.18
17649;BME280;8943;51.110;-4.158;2024-01-16T05:37:50;100679.81;;;7.93;45.86
17649;BME280;8943;51.110;-4.158;2024-01-16T05:40:37;100687.03;;;7.91;46.14
17649;BME280;8943;51.110;-4.158;2024-01-16T05:43:12;100683.59;;;7.89;46.12
17649;BME280;8943;51.110;-4.158;2024-01-16T05:45:49;100685.31;;;7.90;46.37
17649;BME280;8943;51.110;-4.158;2024-01-16T05:48:34;100686.25;;;7.89;46.03
17649;BME280;8943;51.110;-4.158;2024-01-16T05:51:11;100689.03;;;7.88;46.04
17649;BME280;8943;51.110;-4.158;2024-01-16T05:53:43;100685.41;;;7.89;46.28
17649;BME280;8943;51.110;-4.158;2024-01-16T05:56:17;100673.00;;;7.89;46.19
17649;BME280;8943;51.110;-4.158;2024-01-16T05:58:49;100687.03;;;7.91;46.06
17649;BME280;8943;51.110;-4.158;2024-01-16T06:01:20;100683.25;;;7.95;45.79
17649;BME280;8943;51.110;-4.158;2024-01-16T06:03:56;100671.69;;;7.96;46.05
17649;BME280;8943;51.110;-4.158;2024-01-16T06:06:44;100677.72;;;7.98;46.10
17649;BME280;8943;51.110;-4.158;2024-01-16T06:09:30;100675.84;;;8.00;46.18
17649;BME280;8943;51.110;-4.158;2024-01-16T06:12:15;100673.09;;;8.02;46.16
17649;BME280;8943;51.110;-4.158;2024-01-16T06:14:54;100670.53;;;8.00;46.08
17649;BME280;8943;51.110;-4.158;2024-01-16T06:17:42;100668.63;;;8.03;45.89
17649;BME280;8943;51.110;-4.158;2024-01-16T06:20:18;100654.63;;;8.00;45.80
17649;BME280;8943;51.110;-4.158;2024-01-16T06:26:47;100656.50;;;7.98;45.95
17649;BME280;8943;51.110;-4.158;2024-01-16T06:29:25;100648.66;;;7.97;46.12
17649;BME280;8943;51.110;-4.158;2024-01-16T06:32:22;100650.75;;;7.92;45.75
17649;BME280;8943;51.110;-4.158;2024-01-16T06:35:09;100643.91;;;7.88;45.60
17649;BME280;8943;51.110;-4.158;2024-01-16T06:38:01;100635.59;;;7.80;45.49
17649;BME280;8943;51.110;-4.158;2024-01-16T06:40:42;100639.66;;;7.71;45.60
17649;BME280;8943;51.110;-4.158;2024-01-16T06:43:48;100630.59;;;7.61;45.15
17649;BME280;8943;51.110;-4.158;2024-01-16T06:46:21;100630.13;;;7.54;45.24
17649;BME280;8943;51.110;-4.158;2024-01-16T06:49:19;100626.06;;;7.48;45.29
17649;BME280;8943;51.110;-4.158;2024-01-16T06:52:19;100627.38;;;7.41;45.58
17649;BME280;8943;51.110;-4.158;2024-01-16T06:54:51;100626.47;;;7.42;45.50
17649;BME280;8943;51.110;-4.158;2024-01-16T06:57:30;100622.84;;;7.43;45.68
17649;BME280;8943;51.110;-4.158;2024-01-16T07:00:09;100618.50;;;7.42;45.91
17649;BME280;8943;51.110;-4.158;2024-01-16T07:02:45;100613.00;;;7.45;45.79
17649;BME280;8943;51.110;-4.158;2024-01-16T07:05:35;100609.19;;;7.49;45.80
17649;BME280;8943;51.110;-4.158;2024-01-16T07:08:19;100605.59;;;7.51;45.59
17649;BME280;8943;51.110;-4.158;2024-01-16T07:11:00;100614.22;;;7.54;45.57
17649;BME280;8943;51.110;-4.158;2024-01-16T07:13:56;100599.16;;;7.55;45.65
17649;BME280;8943;51.110;-4.158;2024-01-16T07:16:58;100607.97;;;7.55;45.51
17649;BME280;8943;51.110;-4.158;2024-01-16T07:19:30;100607.00;;;7.56;45.74
17649;BME280;8943;51.110;-4.158;2024-01-16T07:22:27;100599.16;;;7.55;45.70
17649;BME280;8943;51.110;-4.158;2024-01-16T07:25:03;100595.56;;;7.56;45.72
17649;BME280;8943;51.110;-4.158;2024-01-16T07:27:56;100595.28;;;7.60;45.58
17649;BME280;8943;51.110;-4.158;2024-01-16T07:30:48;100592.53;;;7.62;45.54
17649;BME280;8943;51.110;-4.158;2024-01-16T07:40:47;100575.28;;;7.69;45.46
17649;BME280;8943;51.110;-4.158;2024-01-16T07:43:23;100575.38;;;7.67;45.50
17649;BME280;8943;51.110;-4.158;2024-01-16T07:46:21;100579.06;;;7.65;45.37
17649;BME280;8943;51.110;-4.158;2024-01-16T07:49:17;100582.69;;;7.64;45.59
17649;BME280;8943;51.110;-4.158;2024-01-16T07:51:50;100576.72;;;7.60;45.58
17649;BME280;8943;51.110;-4.158;2024-01-16T07:54:21;100575.84;;;7.60;45.46
17649;BME280;8943;51.110;-4.158;2024-01-16T07:56:59;100585.63;;;7.59;45.22
17649;BME280;8943;51.110;-4.158;2024-01-16T07:59:30;100584.78;;;7.59;45.37
17649;BME280;8943;51.110;-4.158;2024-01-16T08:02:05;100584.78;;;7.59;45.36
17649;BME280;8943;51.110;-4.158;2024-01-16T08:04:56;100588.28;;;7.59;45.54
17649;BME280;8943;51.110;-4.158;2024-01-16T08:08:18;100596.13;;;7.61;45.48
17649;BME280;8943;51.110;-4.158;2024-01-16T08:11:17;100598.59;;;7.64;45.48
17649;BME280;8943;51.110;-4.158;2024-01-16T08:18:13;100605.19;;;7.71;45.85
17649;BME280;8943;51.110;-4.158;2024-01-16T08:20:58;100604.16;;;7.73;45.48
17649;BME280;8943;51.110;-4.158;2024-01-16T08:48:54;100575.41;;;7.94;45.66
17649;BME280;8943;51.110;-4.158;2024-01-16T08:51:45;100573.28;;;7.99;45.91
17649;BME280;8943;51.110;-4.158;2024-01-16T08:54:20;100565.88;;;8.05;45.29
17649;BME280;8943;51.110;-4.158;2024-01-16T08:57:06;100567.38;;;8.09;45.21
17649;BME280;8943;51.110;-4.158;2024-01-16T08:59:45;100557.44;;;8.12;45.30
17649;BME280;8943;51.110;-4.158;2024-01-16T09:02:20;100550.31;;;8.13;45.11
17649;BME280;8943;51.110;-4.158;2024-01-16T09:08:20;100541.50;;;8.12;45.10
17649;BME280;8943;51.110;-4.158;2024-01-16T09:16:34;100545.06;;;7.98;44.83
17649;BME280;8943;51.110;-4.158;2024-01-16T09:19:04;100542.72;;;7.94;44.87
17649;BME280;8943;51.110;-4.158;2024-01-16T09:22:01;100545.97;;;7.85;44.57
17649;BME280;8943;51.110;-4.158;2024-01-16T09:28:15;100549.50;;;7.71;44.54
17649;BME280;8943;51.110;-4.158;2024-01-16T09:30:44;100548.94;;;7.66;45.03
17649;BME280;8943;51.110;-4.158;2024-01-16T09:33:14;100547.25;;;7.65;44.65
17649;BME280;8943;51.110;-4.158;2024-01-16T09:35:57;100545.75;;;7.61;44.70
17649;BME280;8943;51.110;-4.158;2024-01-16T09:38:27;100552.94;;;7.59;44.60
17649;BME280;8943;51.110;-4.158;2024-01-16T09:40:58;100548.59;;;7.58;44.61
17649;BME280;8943;51.110;-4.158;2024-01-16T09:43:33;100541.59;;;7.57;44.69
17649;BME280;8943;51.110;-4.158;2024-01-16T09:46:04;100542.53;;;7.56;44.76
17649;BME280;8943;51.110;-4.158;2024-01-16T09:48:35;100549.34;;;7.60;44.90
17649;BME280;8943;51.110;-4.158;2024-01-16T09:51:04;100554.66;;;7.60;44.87
17649;BME280;8943;51.110;-4.158;2024-01-16T09:53:34;100532.41;;;7.62;44.74
17649;BME280;8943;51.110;-4.158;2024-01-16T09:56:09;100542.06;;;7.63;44.63
17649;BME280;8943;51.110;-4.158;2024-01-16T09:58:43;100537.50;;;7.65;44.68
17649;BME280;8943;51.110;-4.158;2024-01-16T10:01:13;100530.38;;;7.66;44.68
17649;BME280;8943;51.110;-4.158;2024-01-16T10:03:44;100531.16;;;7.68;44.64
17649;BME280;8943;51.110;-4.158;2024-01-16T10:08:48;100533.50;;;7.72;44.45
17649;BME280;8943;51.110;-4.158;2024-01-16T10:11:18;100530.75;;;7.74;44.31
17649;BME280;8943;51.110;-4.158;2024-01-16T10:13:50;100524.50;;;7.75;44.49
17649;BME280;8943;51.110;-4.158;2024-01-16T10:16:20;100531.19;;;7.81;44.74
17649;BME280;8943;51.110;-4.158;2024-01-16T10:19:03;100525.81;;;7.82;44.52
17649;BME280;8943;51.110;-4.158;2024-01-16T10:21:35;100522.94;;;7.85;44.37
17649;BME280;8943;51.110;-4.158;2024-01-16T10:24:11;100508.53;;;7.89;44.37
17649;BME280;8943;51.110;-4.158;2024-01-16T10:26:49;100508.16;;;7.95;44.30
17649;BME280;8943;51.110;-4.158;2024-01-16T10:29:30;100496.28;;;8.01;44.35
17649;BME280;8943;51.110;-4.158;2024-01-16T10:32:27;100498.41;;;8.09;44.38
17649;BME280;8943;51.110;-4.158;2024-01-16T10:35:05;100490.25;;;8.12;44.33
17649;BME280;8943;51.110;-4.158;2024-01-16T10:37:42;100492.47;;;8.18;44.26
17649;BME280;8943;51.110;-4.158;2024-01-16T10:40:15;100483.38;;;8.22;44.37
17649;BME280;8943;51.110;-4.158;2024-01-16T10:42:57;100480.28;;;8.28;44.09
17649;BME280;8943;51.110;-4.158;2024-01-16T10:45:30;100482.63;;;8.33;44.31
17649;BME280;8943;51.110;-4.158;2024-01-16T10:48:04;100485.97;;;8.36;43.98
17649;BME280;8943;51.110;-4.158;2024-01-16T10:50:35;100483.00;;;8.41;43.97
17649;BME280;8943;51.110;-4.158;2024-01-16T10:53:05;100479.19;;;8.45;44.08
17649;BME280;8943;51.110;-4.158;2024-01-16T10:55:43;100474.31;;;8.51;44.17
17649;BME280;8943;51.110;-4.158;2024-01-16T10:58:19;100464.22;;;8.57;44.15
17649;BME280;8943;51.110;-4.158;2024-01-16T11:00:53;100465.50;;;8.64;43.96
17649;BME280;8943;51.110;-4.158;2024-01-16T11:03:28;100460.72;;;8.69;44.04
17649;BME280;8943;51.110;-4.158;2024-01-16T11:05:58;100455.69;;;8.77;44.00
17649;BME280;8943;51.110;-4.158;2024-01-16T11:08:38;100443.78;;;8.83;43.83
17649;BME280;8943;51.110;-4.158;2024-01-16T11:11:15;100435.41;;;8.89;43.67
17649;BME280;8943;51.110;-4.158;2024-01-16T11:13:46;100438.47;;;8.95;43.98
17649;BME280;8943;51.110;-4.158;2024-01-16T11:16:20;100424.22;;;8.96;43.60
17649;BME280;8943;51.110;-4.158;2024-01-16T11:19:05;100416.03;;;8.99;43.72
17649;BME280;8943;51.110;-4.158;2024-01-16T11:33:47;100406.78;;;9.29;43.20
17649;BME280;8943;51.110;-4.158;2024-01-16T12:02:26;100362.72;;;10.08;42.80
17649;BME280;8943;51.110;-4.158;2024-01-16T12:05:21;100362.13;;;10.16;42.81
17649;BME280;8943;51.110;-4.158;2024-01-16T12:07:53;100367.94;;;10.21;42.58
17649;BME280;8943;51.110;-4.158;2024-01-16T12:10:46;100367.50;;;10.27;42.61
17649;BME280;8943;51.110;-4.158;2024-01-16T12:34:12;100316.09;;;10.92;41.34
17649;BME280;8943;51.110;-4.158;2024-01-16T15:41:50;100019.44;;;12.88;35.01
17649;BME280;8943;51.110;-4.158;2024-01-16T15:44:51;100016.50;;;12.72;35.10
17649;BME280;8943;51.110;-4.158;2024-01-16T15:47:55;100028.63;;;12.57;35.19
17649;BME280;8943;51.110;-4.158;2024-01-16T15:50:56;100017.41;;;12.34;35.64
17649;BME280;8943;51.110;-4.158;2024-01-16T15:54:11;100014.03;;;12.13;35.64
